Bomar Mercury — 9HA2880 — position and weather

sailwx.info

Track history (hours):
 
Tides and Currents Weather Stations Pressure Air Temp Water Temp Dewpoint Dewpoint Depression Visibility Wind Speed Wind Dir Waves Ship Positions

Bomar Mercury

Last reported at 2018-Feb-16 04:55 UTC. Time now 2018-Feb-19 04:32 UTC.
Position N 55°48' E 016°46'.

Length 120 m; draft 5.1 m.

Type: Ship. MMSI: 256541000.

Date/timePositionNaut miles runAvg speedWind from/ knotsBaromVisibWave heightAir tempDewpointWater temp
2018-Feb-16 04:55N 55°48' E 016°46'512.3
2018-Feb-16 04:30N 55°47' E 016°37'612.2
2018-Feb-16 04:00N 55°45' E 016°27'612.2
2018-Feb-16 03:30N 55°44' E 016°16'612.1
2018-Feb-16 03:00N 55°43' E 016°06'612.2
2018-Feb-16 02:30N 55°41' E 015°55'612.2
2018-Feb-16 02:00N 55°40' E 015°45'612.5
2018-Feb-16 01:30N 55°38' E 015°34'612.6
2018-Feb-16 01:00N 55°36' E 015°23'1212.6
2018-Feb-16 00:01N 55°31' E 015°04'012.7
2018-Feb-16 00:00N 55°31' E 015°03'712.6
2018-Feb-15 23:27N 55°28' E 014°52'612.6
2018-Feb-15 22:59N 55°25' E 014°43'612.6
2018-Feb-15 22:28N 55°21' E 014°35'712.9
2018-Feb-15 21:54N 55°15' E 014°27'512.8
2018-Feb-15 21:29N 55°10' E 014°21'812.7
2018-Feb-15 20:52N 55°04' E 014°13'7411.1
2018-Feb-15 14:15N 54°33' E 012°18'312.1
2018-Feb-15 14:00N 54°30' E 012°17'611.1
2018-Feb-15 13:30N 54°25' E 012°11'5 9.6
2018-Feb-15 13:00N 54°24' E 012°03'14 9.8
2018-Feb-15 11:33N 54°26' E 011°39'110.1
2018-Feb-15 11:29N 54°27' E 011°38'510.0
2018-Feb-15 11:00N 54°29' E 011°31'5 9.8
2018-Feb-15 10:30N 54°31' E 011°23'5 9.1
2018-Feb-15 10:00N 54°33' E 011°16'5 9.2
2018-Feb-15 09:30N 54°34' E 011°09'510.2
2018-Feb-15 09:00N 54°34' E 010°60'510.3
2018-Feb-15 08:30N 54°34' E 010°51'610.5
2018-Feb-15 07:58N 54°34' E 010°41'30 7.4
2018-Feb-15 03:51N 54°21' E 009°53'3 8.2
2018-Feb-15 03:28N 54°22' E 009°48'4 8.5
2018-Feb-15 03:00N 54°19' E 009°43'4 7.5
2018-Feb-15 02:30N 54°17' E 009°38'2 4.2
2018-Feb-15 02:00N 54°15' E 009°37'4 7.5
2018-Feb-15 01:30N 54°12' E 009°33'4 8.8
2018-Feb-15 01:00N 54°10' E 009°26'4 8.6
2018-Feb-15 00:30N 54°08' E 009°20'4 8.5
2018-Feb-15 00:00N 54°04' E 009°19'4 8.0
2018-Feb-14 23:30N 53°60' E 009°17'5 8.8
2018-Feb-14 22:59N 53°56' E 009°13'3 7.0
2018-Feb-14 22:30N 53°54' E 009°09'1 1.5
2018-Feb-14 22:01N 53°53' E 009°08'4 7.8
2018-Feb-14 21:30N 53°52' E 009°02'713.3
2018-Feb-14 21:00N 53°50' E 008°50'510.0
2018-Feb-14 20:31N 53°52' E 008°43'510.4
2018-Feb-14 20:00N 53°57' E 008°38'612.3
2018-Feb-14 19:29N 53°59' E 008°28'612.3
2018-Feb-14 18:58N 53°60' E 008°17'611.4
2018-Feb-14 18:26N 53°59' E 008°07'22310.9
2018-Feb-13 21:59N 51°35' E 003°24'510.5
2018-Feb-13 21:29N 51°30' E 003°28'510.1
2018-Feb-13 20:57N 51°26' E 003°34'3 7.6
2018-Feb-13 20:30N 51°27' E 003°39'4 7.5
2018-Feb-13 19:59N 51°24' E 003°44'1 2.1
2018-Feb-13 19:29N 51°24' E 003°46'0 0.1
2018-Feb-13 18:56N 51°24' E 003°46'0 0.0
2018-Feb-13 18:29N 51°24' E 003°46'0 0.0
2018-Feb-13 17:50N 51°24' E 003°46'0 0.1
2018-Feb-13 17:12N 51°24' E 003°46'0 0.6
2018-Feb-13 17:00N 51°24' E 003°46'2 3.5
2018-Feb-13 16:30N 51°24' E 003°43'611.0
2018-Feb-13 16:00N 51°20' E 003°49'0 0.4
2018-Feb-13 15:30N 51°20' E 003°49'0 0.9
2018-Feb-13 15:00N 51°19' E 003°49'2 3.6
2018-Feb-13 14:31N 51°18' E 003°50'1 0.8
2018-Feb-13 13:04N 51°16' E 003°50'0 0.0
2018-Feb-13 12:40N 51°16' E 003°50'0 0.0
2018-Feb-13 12:22N 51°16' E 003°50'0 0.0
2018-Feb-13 11:46N 51°16' E 003°50'0 0.0
2018-Feb-13 11:22N 51°16' E 003°50'0 0.0
2018-Feb-13 10:52N 51°16' E 003°50'0 0.0
2018-Feb-13 10:28N 51°16' E 003°50'0 0.0
2018-Feb-13 09:58N 51°16' E 003°50'0 0.0
2018-Feb-13 08:58N 51°16' E 003°50'0 0.0
2018-Feb-13 08:28N 51°16' E 003°50'0 0.0
2018-Feb-13 07:55N 51°16' E 003°50'0 0.0
2018-Feb-13 06:41N 51°16' E 003°50'0 0.0
2018-Feb-13 05:29N 51°16' E 003°50'0 0.0
2018-Feb-13 04:41N 51°16' E 003°50'0 0.0
2018-Feb-13 04:23N 51°16' E 003°50'0 0.0
2018-Feb-13 03:47N 51°16' E 003°50'0 0.0
2018-Feb-13 02:41N 51°16' E 003°50'0 0.0
2018-Feb-13 02:29N 51°16' E 003°50'0 0.0
2018-Feb-13 01:53N 51°16' E 003°50'0 0.0
2018-Feb-13 01:29N 51°16' E 003°50'0 0.0
2018-Feb-13 00:41N 51°16' E 003°50'0 0.0
2018-Feb-12 23:23N 51°16' E 003°50'0 0.0
2018-Feb-12 22:59N 51°16' E 003°50'0 0.0
2018-Feb-12 22:11N 51°16' E 003°50'0 0.0
2018-Feb-12 20:59N 51°16' E 003°50'0 0.0
2018-Feb-12 20:23N 51°16' E 003°50'0 0.0
2018-Feb-12 18:41N 51°16' E 003°50'0 0.0
2018-Feb-12 18:29N 51°16' E 003°50'0 0.0
2018-Feb-12 17:59N 51°16' E 003°50'0 0.0
2018-Feb-12 17:20N 51°16' E 003°50'0 0.0
2018-Feb-12 16:44N 51°16' E 003°50'0 0.0
2018-Feb-12 15:09N 51°16' E 003°50'0 0.0
2018-Feb-12 14:45N 51°16' E 003°50'0 0.0
2018-Feb-12 12:57N 51°16' E 003°50'0 0.0
2018-Feb-12 12:21N 51°16' E 003°50'0 0.0
2018-Feb-12 11:45N 51°16' E 003°50'0 0.0
2018-Feb-12 11:27N 51°16' E 003°50'0 0.0
2018-Feb-12 10:19N 51°16' E 003°50'0 0.0
2018-Feb-12 09:49N 51°16' E 003°50'0 0.0
2018-Feb-12 09:25N 51°16' E 003°50'0 0.0
2018-Feb-12 08:55N 51°16' E 003°50'0 0.0
2018-Feb-12 07:31N 51°16' E 003°50'0 0.0
2018-Feb-12 07:13N 51°16' E 003°50'0 0.0
2018-Feb-12 06:55N 51°16' E 003°50'0 0.0
2018-Feb-12 05:55N 51°16' E 003°50'0 0.0
2018-Feb-12 05:13N 51°16' E 003°50'0 0.0
2018-Feb-12 04:43N 51°16' E 003°50'0 0.0
2018-Feb-12 04:19N 51°16' E 003°50'0 0.0
2018-Feb-12 03:55N 51°16' E 003°50'0 0.0
2018-Feb-12 03:19N 51°16' E 003°50'0 0.0
2018-Feb-12 02:55N 51°16' E 003°50'0 0.0
2018-Feb-12 02:19N 51°16' E 003°50'0 0.0
2018-Feb-12 01:25N 51°16' E 003°50'0 0.0
2018-Feb-12 00:55N 51°16' E 003°50'0 0.0
2018-Feb-12 00:25N 51°16' E 003°50'0 0.0
2018-Feb-11 23:49N 51°16' E 003°50'0 0.0
2018-Feb-11 23:25N 51°16' E 003°50'0 0.0
2018-Feb-11 22:25N 51°16' E 003°50'0 0.0
2018-Feb-11 21:49N 51°16' E 003°50'0 0.0
2018-Feb-11 21:25N 51°16' E 003°50'0 0.0
2018-Feb-11 20:37N 51°16' E 003°50'0 0.0
2018-Feb-11 19:25N 51°16' E 003°50'0 0.0
2018-Feb-11 18:49N 51°16' E 003°50'0 0.0
2018-Feb-11 16:55N 51°16' E 003°50'0 0.0
2018-Feb-11 16:25N 51°16' E 003°50'0 0.0
2018-Feb-11 15:25N 51°16' E 003°50'0 0.0
2018-Feb-11 14:13N 51°16' E 003°50'0 0.0
2018-Feb-11 13:55N 51°16' E 003°50'0 0.0
2018-Feb-11 11:31N 51°16' E 003°50'0 0.0
2018-Feb-11 11:19N 51°16' E 003°50'0 0.0
2018-Feb-11 10:49N 51°16' E 003°50'0 0.0
2018-Feb-11 10:25N 51°16' E 003°50'0 0.0
2018-Feb-11 09:31N 51°16' E 003°50'0 0.0
2018-Feb-11 09:13N 51°16' E 003°50'0 0.0
2018-Feb-11 08:49N 51°16' E 003°50'0 0.0
2018-Feb-11 07:49N 51°16' E 003°50'0 0.0
2018-Feb-11 06:25N 51°16' E 003°50'0 0.0
2018-Feb-11 04:55N 51°16' E 003°50'0 0.0
2018-Feb-11 04:07N 51°16' E 003°50'0 0.0
2018-Feb-11 03:49N 51°16' E 003°50'0 0.0
2018-Feb-11 03:13N 51°16' E 003°50'0 0.0
2018-Feb-11 02:55N 51°16' E 003°50'0 0.0
2018-Feb-11 02:19N 51°16' E 003°50'0 0.0
2018-Feb-11 01:25N 51°16' E 003°50'0 0.0
2018-Feb-11 00:55N 51°16' E 003°50'0 0.0
2018-Feb-11 00:19N 51°16' E 003°50'0 0.0
2018-Feb-10 23:55N 51°16' E 003°50'0 0.0
2018-Feb-10 23:25N 51°16' E 003°50'0 0.0
2018-Feb-10 22:37N 51°16' E 003°50'0 0.0
2018-Feb-10 22:07N 51°16' E 003°50'0 0.0
2018-Feb-10 21:37N 51°16' E 003°50'0 0.0
2018-Feb-10 21:01N 51°16' E 003°50'0 0.0
2018-Feb-10 20:37N 51°16' E 003°50'0 0.0
2018-Feb-10 20:13N 51°16' E 003°50'0 0.0
2018-Feb-10 19:07N 51°16' E 003°50'0 0.0
2018-Feb-10 15:31N 51°16' E 003°50'0 0.0
2018-Feb-10 15:25N 51°16' E 003°50'0 0.0
2018-Feb-10 13:37N 51°16' E 003°50'0 0.0
2018-Feb-10 13:19N 51°16' E 003°50'0 0.0
2018-Feb-10 12:55N 51°16' E 003°50'0 0.0
2018-Feb-10 12:13N 51°16' E 003°50'0 0.0
2018-Feb-10 11:19N 51°16' E 003°50'0 0.0
2018-Feb-10 10:55N 51°16' E 003°50'0 0.0
2018-Feb-10 10:13N 51°16' E 003°50'0 0.0
2018-Feb-10 09:55N 51°16' E 003°50'0 0.0
2018-Feb-10 08:55N 51°16' E 003°50'0 0.0
2018-Feb-10 08:19N 51°16' E 003°50'0 0.0
2018-Feb-10 07:49N 51°16' E 003°50'0 0.0
2018-Feb-10 06:25N 51°16' E 003°50'0 0.0
2018-Feb-10 05:55N 51°16' E 003°50'0 0.0
2018-Feb-10 05:25N 51°16' E 003°50'0 0.0
2018-Feb-10 04:43N 51°16' E 003°50'0 0.0
2018-Feb-10 04:25N 51°16' E 003°50'0 0.0
2018-Feb-10 03:37N 51°16' E 003°50'0 0.0
2018-Feb-10 03:25N 51°16' E 003°50'0 0.0
2018-Feb-10 02:55N 51°16' E 003°50'0 0.0
2018-Feb-10 01:25N 51°16' E 003°50'0 0.0
2018-Feb-10 00:43N 51°16' E 003°50'0 0.0
2018-Feb-10 00:25N 51°16' E 003°50'0 0.0
2018-Feb-09 23:07N 51°16' E 003°50'0 0.0
2018-Feb-09 22:49N 51°16' E 003°50'0 0.0
2018-Feb-09 22:19N 51°16' E 003°50'  
2018-Feb-07 08:33N 51°16' E 003°50'0 0.0
2018-Feb-07 08:21N 51°16' E 003°50'0 0.0
2018-Feb-07 07:15N 51°16' E 003°50'0 0.0
2018-Feb-07 06:51N 51°16' E 003°50'0 0.0
2018-Feb-07 06:27N 51°16' E 003°50'0 0.0
2018-Feb-07 05:57N 51°16' E 003°50'0 0.0
2018-Feb-07 05:24N 51°16' E 003°50'0 0.0
2018-Feb-07 04:57N 51°16' E 003°50'0 0.0
2018-Feb-07 02:39N 51°16' E 003°50'0 0.0
2018-Feb-07 02:03N 51°16' E 003°50'0 0.0
2018-Feb-07 01:09N 51°16' E 003°50'0 0.0
2018-Feb-07 00:54N 51°16' E 003°50'0 0.0
2018-Feb-07 00:24N 51°16' E 003°50'0 0.0
2018-Feb-06 23:51N 51°16' E 003°50'0 0.0
2018-Feb-06 23:15N 51°16' E 003°50'0 0.0
2018-Feb-06 22:39N 51°16' E 003°50'0 0.0
2018-Feb-06 22:09N 51°16' E 003°50'0 0.0
2018-Feb-06 20:27N 51°16' E 003°50'0 0.0
2018-Feb-06 19:57N 51°16' E 003°50'0 0.0
2018-Feb-06 19:27N 51°16' E 003°50'0 0.0
2018-Feb-06 18:03N 51°16' E 003°50'0 0.0
2018-Feb-06 17:54N 51°16' E 003°50'0 0.0
2018-Feb-06 17:27N 51°16' E 003°50'0 0.0
2018-Feb-06 16:57N 51°16' E 003°50'0 0.0
2018-Feb-06 16:03N 51°16' E 003°50'0 0.0
2018-Feb-06 15:57N 51°16' E 003°50'0 0.0
2018-Feb-06 15:21N 51°16' E 003°50'0 0.0
2018-Feb-06 14:57N 51°16' E 003°50'0 0.0
2018-Feb-06 14:27N 51°16' E 003°50'0 0.0
2018-Feb-06 13:45N 51°16' E 003°50'0 0.0
2018-Feb-06 12:39N 51°16' E 003°50'0 0.0
2018-Feb-06 12:15N 51°16' E 003°50'0 0.0
2018-Feb-06 11:57N 51°16' E 003°50'0 0.0
2018-Feb-06 11:15N 51°16' E 003°50'0 0.0
2018-Feb-06 10:45N 51°16' E 003°50'0 0.0
2018-Feb-06 09:21N 51°16' E 003°50'0 0.0
2018-Feb-06 08:51N 51°16' E 003°50'0 0.0
2018-Feb-06 07:39N 51°16' E 003°50'0 0.0
2018-Feb-06 07:27N 51°16' E 003°50'0 0.0
2018-Feb-06 06:09N 51°16' E 003°50'  
Track history (hours):
 
Tides and Currents Weather Stations Pressure Air Temp Water Temp Dewpoint Dewpoint Depression Visibility Wind Speed Wind Dir Waves Ship Positions

Bomar Mercury

Last reported at 2018-Feb-16 04:55 UTC. Time now 2018-Feb-19 04:32 UTC.
Position N 55°48' E 016°46'.

Length 120 m; draft 5.1 m.

Type: Ship. MMSI: 256541000.

Date/timePositionNaut miles runAvg speedWind from/ knotsBaromVisibWave heightAir tempDewpointWater temp
2018-Feb-16 04:55N 55°48' E 016°46'512.3
2018-Feb-16 04:30N 55°47' E 016°37'612.2
2018-Feb-16 04:00N 55°45' E 016°27'612.2
2018-Feb-16 03:30N 55°44' E 016°16'612.1
2018-Feb-16 03:00N 55°43' E 016°06'612.2
2018-Feb-16 02:30N 55°41' E 015°55'612.2
2018-Feb-16 02:00N 55°40' E 015°45'612.5
2018-Feb-16 01:30N 55°38' E 015°34'612.6
2018-Feb-16 01:00N 55°36' E 015°23'1212.6
2018-Feb-16 00:01N 55°31' E 015°04'012.7
2018-Feb-16 00:00N 55°31' E 015°03'712.6
2018-Feb-15 23:27N 55°28' E 014°52'612.6
2018-Feb-15 22:59N 55°25' E 014°43'612.6
2018-Feb-15 22:28N 55°21' E 014°35'712.9
2018-Feb-15 21:54N 55°15' E 014°27'512.8
2018-Feb-15 21:29N 55°10' E 014°21'812.7
2018-Feb-15 20:52N 55°04' E 014°13'7411.1
2018-Feb-15 14:15N 54°33' E 012°18'312.1
2018-Feb-15 14:00N 54°30' E 012°17'611.1
2018-Feb-15 13:30N 54°25' E 012°11'5 9.6
2018-Feb-15 13:00N 54°24' E 012°03'14 9.8
2018-Feb-15 11:33N 54°26' E 011°39'110.1
2018-Feb-15 11:29N 54°27' E 011°38'510.0
2018-Feb-15 11:00N 54°29' E 011°31'5 9.8
2018-Feb-15 10:30N 54°31' E 011°23'5 9.1
2018-Feb-15 10:00N 54°33' E 011°16'5 9.2
2018-Feb-15 09:30N 54°34' E 011°09'510.2
2018-Feb-15 09:00N 54°34' E 010°60'510.3
2018-Feb-15 08:30N 54°34' E 010°51'610.5
2018-Feb-15 07:58N 54°34' E 010°41'30 7.4
2018-Feb-15 03:51N 54°21' E 009°53'3 8.2
2018-Feb-15 03:28N 54°22' E 009°48'4 8.5
2018-Feb-15 03:00N 54°19' E 009°43'4 7.5
2018-Feb-15 02:30N 54°17' E 009°38'2 4.2
2018-Feb-15 02:00N 54°15' E 009°37'4 7.5
2018-Feb-15 01:30N 54°12' E 009°33'4 8.8
2018-Feb-15 01:00N 54°10' E 009°26'4 8.6
2018-Feb-15 00:30N 54°08' E 009°20'4 8.5
2018-Feb-15 00:00N 54°04' E 009°19'4 8.0
2018-Feb-14 23:30N 53°60' E 009°17'5 8.8
2018-Feb-14 22:59N 53°56' E 009°13'3 7.0
2018-Feb-14 22:30N 53°54' E 009°09'1 1.5
2018-Feb-14 22:01N 53°53' E 009°08'4 7.8
2018-Feb-14 21:30N 53°52' E 009°02'713.3
2018-Feb-14 21:00N 53°50' E 008°50'510.0
2018-Feb-14 20:31N 53°52' E 008°43'510.4
2018-Feb-14 20:00N 53°57' E 008°38'612.3
2018-Feb-14 19:29N 53°59' E 008°28'612.3
2018-Feb-14 18:58N 53°60' E 008°17'611.4
2018-Feb-14 18:26N 53°59' E 008°07'22310.9
2018-Feb-13 21:59N 51°35' E 003°24'510.5
2018-Feb-13 21:29N 51°30' E 003°28'510.1
2018-Feb-13 20:57N 51°26' E 003°34'3 7.6
2018-Feb-13 20:30N 51°27' E 003°39'4 7.5
2018-Feb-13 19:59N 51°24' E 003°44'1 2.1
2018-Feb-13 19:29N 51°24' E 003°46'0 0.1
2018-Feb-13 18:56N 51°24' E 003°46'0 0.0
2018-Feb-13 18:29N 51°24' E 003°46'0 0.0
2018-Feb-13 17:50N 51°24' E 003°46'0 0.1
2018-Feb-13 17:12N 51°24' E 003°46'0 0.6
2018-Feb-13 17:00N 51°24' E 003°46'2 3.5
2018-Feb-13 16:30N 51°24' E 003°43'611.0
2018-Feb-13 16:00N 51°20' E 003°49'0 0.4
2018-Feb-13 15:30N 51°20' E 003°49'0 0.9
2018-Feb-13 15:00N 51°19' E 003°49'2 3.6
2018-Feb-13 14:31N 51°18' E 003°50'1 0.8
2018-Feb-13 13:04N 51°16' E 003°50'0 0.0
2018-Feb-13 12:40N 51°16' E 003°50'0 0.0
2018-Feb-13 12:22N 51°16' E 003°50'0 0.0
2018-Feb-13 11:46N 51°16' E 003°50'0 0.0
2018-Feb-13 11:22N 51°16' E 003°50'0 0.0
2018-Feb-13 10:52N 51°16' E 003°50'0 0.0
2018-Feb-13 10:28N 51°16' E 003°50'0 0.0
2018-Feb-13 09:58N 51°16' E 003°50'0 0.0
2018-Feb-13 08:58N 51°16' E 003°50'0 0.0
2018-Feb-13 08:28N 51°16' E 003°50'0 0.0
2018-Feb-13 07:55N 51°16' E 003°50'0 0.0
2018-Feb-13 06:41N 51°16' E 003°50'0 0.0
2018-Feb-13 05:29N 51°16' E 003°50'0 0.0
2018-Feb-13 04:41N 51°16' E 003°50'0 0.0
2018-Feb-13 04:23N 51°16' E 003°50'0 0.0
2018-Feb-13 03:47N 51°16' E 003°50'0 0.0
2018-Feb-13 02:41N 51°16' E 003°50'0 0.0
2018-Feb-13 02:29N 51°16' E 003°50'0 0.0
2018-Feb-13 01:53N 51°16' E 003°50'0 0.0
2018-Feb-13 01:29N 51°16' E 003°50'0 0.0
2018-Feb-13 00:41N 51°16' E 003°50'0 0.0
2018-Feb-12 23:23N 51°16' E 003°50'0 0.0
2018-Feb-12 22:59N 51°16' E 003°50'0 0.0
2018-Feb-12 22:11N 51°16' E 003°50'0 0.0
2018-Feb-12 20:59N 51°16' E 003°50'0 0.0
2018-Feb-12 20:23N 51°16' E 003°50'0 0.0
2018-Feb-12 18:41N 51°16' E 003°50'0 0.0
2018-Feb-12 18:29N 51°16' E 003°50'0 0.0
2018-Feb-12 17:59N 51°16' E 003°50'0 0.0
2018-Feb-12 17:20N 51°16' E 003°50'0 0.0
2018-Feb-12 16:44N 51°16' E 003°50'0 0.0
2018-Feb-12 15:09N 51°16' E 003°50'0 0.0
2018-Feb-12 14:45N 51°16' E 003°50'0 0.0
2018-Feb-12 12:57N 51°16' E 003°50'0 0.0
2018-Feb-12 12:21N 51°16' E 003°50'0 0.0
2018-Feb-12 11:45N 51°16' E 003°50'0 0.0
2018-Feb-12 11:27N 51°16' E 003°50'0 0.0
2018-Feb-12 10:19N 51°16' E 003°50'0 0.0
2018-Feb-12 09:49N 51°16' E 003°50'0 0.0
2018-Feb-12 09:25N 51°16' E 003°50'0 0.0
2018-Feb-12 08:55N 51°16' E 003°50'0 0.0
2018-Feb-12 07:31N 51°16' E 003°50'0 0.0
2018-Feb-12 07:13N 51°16' E 003°50'0 0.0
2018-Feb-12 06:55N 51°16' E 003°50'0 0.0
2018-Feb-12 05:55N 51°16' E 003°50'0 0.0
2018-Feb-12 05:13N 51°16' E 003°50'0 0.0
2018-Feb-12 04:43N 51°16' E 003°50'0 0.0
2018-Feb-12 04:19N 51°16' E 003°50'0 0.0
2018-Feb-12 03:55N 51°16' E 003°50'0 0.0
2018-Feb-12 03:19N 51°16' E 003°50'0 0.0
2018-Feb-12 02:55N 51°16' E 003°50'0 0.0
2018-Feb-12 02:19N 51°16' E 003°50'0 0.0
2018-Feb-12 01:25N 51°16' E 003°50'0 0.0
2018-Feb-12 00:55N 51°16' E 003°50'0 0.0
2018-Feb-12 00:25N 51°16' E 003°50'0 0.0
2018-Feb-11 23:49N 51°16' E 003°50'0 0.0
2018-Feb-11 23:25N 51°16' E 003°50'0 0.0
2018-Feb-11 22:25N 51°16' E 003°50'0 0.0
2018-Feb-11 21:49N 51°16' E 003°50'0 0.0
2018-Feb-11 21:25N 51°16' E 003°50'0 0.0
2018-Feb-11 20:37N 51°16' E 003°50'0 0.0
2018-Feb-11 19:25N 51°16' E 003°50'0 0.0
2018-Feb-11 18:49N 51°16' E 003°50'0 0.0
2018-Feb-11 16:55N 51°16' E 003°50'0 0.0
2018-Feb-11 16:25N 51°16' E 003°50'0 0.0
2018-Feb-11 15:25N 51°16' E 003°50'0 0.0
2018-Feb-11 14:13N 51°16' E 003°50'0 0.0
2018-Feb-11 13:55N 51°16' E 003°50'0 0.0
2018-Feb-11 11:31N 51°16' E 003°50'0 0.0
2018-Feb-11 11:19N 51°16' E 003°50'0 0.0
2018-Feb-11 10:49N 51°16' E 003°50'0 0.0
2018-Feb-11 10:25N 51°16' E 003°50'0 0.0
2018-Feb-11 09:31N 51°16' E 003°50'0 0.0
2018-Feb-11 09:13N 51°16' E 003°50'0 0.0
2018-Feb-11 08:49N 51°16' E 003°50'0 0.0
2018-Feb-11 07:49N 51°16' E 003°50'0 0.0
2018-Feb-11 06:25N 51°16' E 003°50'0 0.0
2018-Feb-11 04:55N 51°16' E 003°50'0 0.0
2018-Feb-11 04:07N 51°16' E 003°50'0 0.0
2018-Feb-11 03:49N 51°16' E 003°50'0 0.0
2018-Feb-11 03:13N 51°16' E 003°50'0 0.0
2018-Feb-11 02:55N 51°16' E 003°50'0 0.0
2018-Feb-11 02:19N 51°16' E 003°50'0 0.0
2018-Feb-11 01:25N 51°16' E 003°50'0 0.0
2018-Feb-11 00:55N 51°16' E 003°50'0 0.0
2018-Feb-11 00:19N 51°16' E 003°50'0 0.0
2018-Feb-10 23:55N 51°16' E 003°50'0 0.0
2018-Feb-10 23:25N 51°16' E 003°50'0 0.0
2018-Feb-10 22:37N 51°16' E 003°50'0 0.0
2018-Feb-10 22:07N 51°16' E 003°50'0 0.0
2018-Feb-10 21:37N 51°16' E 003°50'0 0.0
2018-Feb-10 21:01N 51°16' E 003°50'0 0.0
2018-Feb-10 20:37N 51°16' E 003°50'0 0.0
2018-Feb-10 20:13N 51°16' E 003°50'0 0.0
2018-Feb-10 19:07N 51°16' E 003°50'0 0.0
2018-Feb-10 15:31N 51°16' E 003°50'0 0.0
2018-Feb-10 15:25N 51°16' E 003°50'0 0.0
2018-Feb-10 13:37N 51°16' E 003°50'0 0.0
2018-Feb-10 13:19N 51°16' E 003°50'0 0.0
2018-Feb-10 12:55N 51°16' E 003°50'0 0.0
2018-Feb-10 12:13N 51°16' E 003°50'0 0.0
2018-Feb-10 11:19N 51°16' E 003°50'0 0.0
2018-Feb-10 10:55N 51°16' E 003°50'0 0.0
2018-Feb-10 10:13N 51°16' E 003°50'0 0.0
2018-Feb-10 09:55N 51°16' E 003°50'0 0.0
2018-Feb-10 08:55N 51°16' E 003°50'0 0.0
2018-Feb-10 08:19N 51°16' E 003°50'0 0.0
2018-Feb-10 07:49N 51°16' E 003°50'0 0.0
2018-Feb-10 06:25N 51°16' E 003°50'0 0.0
2018-Feb-10 05:55N 51°16' E 003°50'0 0.0
2018-Feb-10 05:25N 51°16' E 003°50'0 0.0
2018-Feb-10 04:43N 51°16' E 003°50'0 0.0
2018-Feb-10 04:25N 51°16' E 003°50'0 0.0
2018-Feb-10 03:37N 51°16' E 003°50'0 0.0
2018-Feb-10 03:25N 51°16' E 003°50'0 0.0
2018-Feb-10 02:55N 51°16' E 003°50'0 0.0
2018-Feb-10 01:25N 51°16' E 003°50'0 0.0
2018-Feb-10 00:43N 51°16' E 003°50'0 0.0
2018-Feb-10 00:25N 51°16' E 003°50'0 0.0
2018-Feb-09 23:07N 51°16' E 003°50'0 0.0
2018-Feb-09 22:49N 51°16' E 003°50'0 0.0
2018-Feb-09 22:19N 51°16' E 003°50'  
2018-Feb-07 08:33N 51°16' E 003°50'0 0.0
2018-Feb-07 08:21N 51°16' E 003°50'0 0.0
2018-Feb-07 07:15N 51°16' E 003°50'0 0.0
2018-Feb-07 06:51N 51°16' E 003°50'0 0.0
2018-Feb-07 06:27N 51°16' E 003°50'0 0.0
2018-Feb-07 05:57N 51°16' E 003°50'0 0.0
2018-Feb-07 05:24N 51°16' E 003°50'0 0.0
2018-Feb-07 04:57N 51°16' E 003°50'0 0.0
2018-Feb-07 02:39N 51°16' E 003°50'0 0.0
2018-Feb-07 02:03N 51°16' E 003°50'0 0.0
2018-Feb-07 01:09N 51°16' E 003°50'0 0.0
2018-Feb-07 00:54N 51°16' E 003°50'0 0.0
2018-Feb-07 00:24N 51°16' E 003°50'0 0.0
2018-Feb-06 23:51N 51°16' E 003°50'0 0.0
2018-Feb-06 23:15N 51°16' E 003°50'0 0.0
2018-Feb-06 22:39N 51°16' E 003°50'0 0.0
2018-Feb-06 22:09N 51°16' E 003°50'0 0.0
2018-Feb-06 20:27N 51°16' E 003°50'0 0.0
2018-Feb-06 19:57N 51°16' E 003°50'0 0.0
2018-Feb-06 19:27N 51°16' E 003°50'0 0.0
2018-Feb-06 18:03N 51°16' E 003°50'0 0.0
2018-Feb-06 17:54N 51°16' E 003°50'0 0.0
2018-Feb-06 17:27N 51°16' E 003°50'0 0.0
2018-Feb-06 16:57N 51°16' E 003°50'0 0.0
2018-Feb-06 16:03N 51°16' E 003°50'0 0.0
2018-Feb-06 15:57N 51°16' E 003°50'0 0.0
2018-Feb-06 15:21N 51°16' E 003°50'0 0.0
2018-Feb-06 14:57N 51°16' E 003°50'0 0.0
2018-Feb-06 14:27N 51°16' E 003°50'0 0.0
2018-Feb-06 13:45N 51°16' E 003°50'0 0.0
2018-Feb-06 12:39N 51°16' E 003°50'0 0.0
2018-Feb-06 12:15N 51°16' E 003°50'0 0.0
2018-Feb-06 11:57N 51°16' E 003°50'0 0.0
2018-Feb-06 11:15N 51°16' E 003°50'0 0.0
2018-Feb-06 10:45N 51°16' E 003°50'0 0.0
2018-Feb-06 09:21N 51°16' E 003°50'0 0.0
2018-Feb-06 08:51N 51°16' E 003°50'0 0.0
2018-Feb-06 07:39N 51°16' E 003°50'0 0.0
2018-Feb-06 07:27N 51°16' E 003°50'0 0.0
2018-Feb-06 06:09N 51°16' E 003°50'  

Dump ship's entire track history